sensor_id;sensor_type;location;lat;lon;timestamp;P1;P2;P0
53698;PMS7003;68408;53.952;27.612;2023-05-07T00:02:01;3.6;3.2;2.5
53698;PMS7003;68408;53.952;27.612;2023-05-07T00:06:51;3.6;3.4;2.6
53698;PMS7003;68408;53.952;27.612;2023-05-07T00:11:51;4.4;3;2.1
53698;PMS7003;68408;53.952;27.612;2023-05-07T00:16:13;3.2;2.2;1.8
53698;PMS7003;68408;53.952;27.612;2023-05-07T00:22:01;2.5;2.2;1.9
53698;PMS7003;68408;53.952;27.612;2023-05-07T00:26:23;3.8;2.4;2
53698;PMS7003;68408;53.952;27.612;2023-05-07T00:31:48;4.1;2.9;2.4
53698;PMS7003;68408;53.952;27.612;2023-05-07T00:37:00;2.4;2;1.6
53698;PMS7003;68408;53.952;27.612;2023-05-07T00:41:35;3.3;2.4;1.9
53698;PMS7003;68408;53.952;27.612;2023-05-07T00:46:33;2.8;2.1;1.6
53698;PMS7003;68408;53.952;27.612;2023-05-07T00:51:39;3.8;2.5;2
53698;PMS7003;68408;53.952;27.612;2023-05-07T00:56:31;3;2.1;1.6
53698;PMS7003;68408;53.952;27.612;2023-05-07T01:01:51;2.7;1.7;1.4
53698;PMS7003;68408;53.952;27.612;2023-05-07T01:06:39;3.3;2.3;1.7
53698;PMS7003;68408;53.952;27.612;2023-05-07T01:11:39;2;1.6;1.4
53698;PMS7003;68408;53.952;27.612;2023-05-07T01:16:43;3.6;2.1;1.6
53698;PMS7003;68408;53.952;27.612;2023-05-07T01:22:01;2.8;1.9;1.7
53698;PMS7003;68408;53.952;27.612;2023-05-07T01:26:43;3.5;2.2;1.9
53698;PMS7003;68408;53.952;27.612;2023-05-07T01:31:33;3;2.5;2
53698;PMS7003;68408;53.952;27.612;2023-05-07T01:36:13;2.6;2.3;1.9
53698;PMS7003;68408;53.952;27.612;2023-05-07T01:41:59;2.7;2.1;1.7
53698;PMS7003;68408;53.952;27.612;2023-05-07T01:46:35;3.7;2.7;2.2
53698;PMS7003;68408;53.952;27.612;2023-05-07T01:51:13;4;2.6;2.1
53698;PMS7003;68408;53.952;27.612;2023-05-07T01:56:59;3.1;2.7;1.9
53698;PMS7003;68408;53.952;27.612;2023-05-07T02:01:13;4;3;2.4
53698;PMS7003;68408;53.952;27.612;2023-05-07T02:06:13;3.2;2.4;1.8
53698;PMS7003;68408;53.952;27.612;2023-05-07T02:11:19;3.6;2.7;2.1
53698;PMS7003;68408;53.952;27.612;2023-05-07T02:16:59;3.5;2.9;2.1
53698;PMS7003;68408;53.952;27.612;2023-05-07T02:21:51;3.3;2.6;2
53698;PMS7003;68408;53.952;27.612;2023-05-07T02:26:59;4;3.3;2.7
53698;PMS7003;68408;53.952;27.612;2023-05-07T02:31:59;3.7;3.4;2.8
53698;PMS7003;68408;53.952;27.612;2023-05-07T02:36:25;3.8;3.3;2.6
53698;PMS7003;68408;53.952;27.612;2023-05-07T02:41:13;4.4;3.4;2.7
53698;PMS7003;68408;53.952;27.612;2023-05-07T02:46:59;3.7;3.4;2.8
53698;PMS7003;68408;53.952;27.612;2023-05-07T02:51:35;3.6;2.7;2.1
53698;PMS7003;68408;53.952;27.612;2023-05-07T02:57:01;5.5;3.7;2.9
53698;PMS7003;68408;53.952;27.612;2023-05-07T03:01:25;4.6;3.4;2.7
53698;PMS7003;68408;53.952;27.612;2023-05-07T03:06:59;4.1;3.4;2.4
53698;PMS7003;68408;53.952;27.612;2023-05-07T03:11:51;3.6;3;2.5
53698;PMS7003;68408;53.952;27.612;2023-05-07T03:16:13;5.2;4.1;2.9
53698;PMS7003;68408;53.952;27.612;2023-05-07T03:21:35;4.3;3.7;3
53698;PMS7003;68408;53.952;27.612;2023-05-07T03:26:59;4.2;3.4;2.6
53698;PMS7003;68408;53.952;27.612;2023-05-07T03:31:13;3.6;3.3;2.6
53698;PMS7003;68408;53.952;27.612;2023-05-07T03:36:47;5.8;4.6;3.9
53698;PMS7003;68408;53.952;27.612;2023-05-07T03:41:59;6.5;4.4;3.2
53698;PMS7003;68408;53.952;27.612;2023-05-07T03:46:43;5.6;3.7;3
53698;PMS7003;68408;53.952;27.612;2023-05-07T03:51:13;5.3;3.6;2.6
53698;PMS7003;68408;53.952;27.612;2023-05-07T03:56:39;4.5;3.6;2.8
53698;PMS7003;68408;53.952;27.612;2023-05-07T04:01:31;3.6;3.2;2.3
53698;PMS7003;68408;53.952;27.612;2023-05-07T04:06:51;4.3;3.6;3
53698;PMS7003;68408;53.952;27.612;2023-05-07T04:11:13;4.9;3.8;3
53698;PMS7003;68408;53.952;27.612;2023-05-07T04:16:31;5.8;4.1;3.1
53698;PMS7003;68408;53.952;27.612;2023-05-07T04:21:43;4.1;3;2.4
53698;PMS7003;68408;53.952;27.612;2023-05-07T04:26:59;4.2;3.8;3
53698;PMS7003;68408;53.952;27.612;2023-05-07T04:31:13;4.7;3.5;2.8
53698;PMS7003;68408;53.952;27.612;2023-05-07T04:36:13;4.8;3;2.3
53698;PMS7003;68408;53.952;27.612;2023-05-07T04:41:25;4.3;3.5;2.7
53698;PMS7003;68408;53.952;27.612;2023-05-07T04:46:59;4.6;3.6;2.8
53698;PMS7003;68408;53.952;27.612;2023-05-07T04:51:51;5.2;3.8;3
53698;PMS7003;68408;53.952;27.612;2023-05-07T04:56:13;4.4;3.1;2.5
53698;PMS7003;68408;53.952;27.612;2023-05-07T05:01:59;4.3;3.6;2.8
53698;PMS7003;68408;53.952;27.612;2023-05-07T05:06:39;3.3;2.6;2.3
53698;PMS7003;68408;53.952;27.612;2023-05-07T05:11:25;4.7;3.6;2.8
53698;PMS7003;68408;53.952;27.612;2023-05-07T05:16:31;4.7;3.7;2.9
53698;PMS7003;68408;53.952;27.612;2023-05-07T05:21:59;5.2;3.9;3
53698;PMS7003;68408;53.952;27.612;2023-05-07T05:26:13;5.1;4;3
53698;PMS7003;68408;53.952;27.612;2023-05-07T05:31:59;4.7;3.8;3
53698;PMS7003;68408;53.952;27.612;2023-05-07T05:36:59;5.5;4.8;3.9
53698;PMS7003;68408;53.952;27.612;2023-05-07T05:41:23;6.1;4.4;3.5
53698;PMS7003;68408;53.952;27.612;2023-05-07T05:46:35;7.1;5.2;4
53698;PMS7003;68408;53.952;27.612;2023-05-07T05:51:47;5.9;4.4;3.2
53698;PMS7003;68408;53.952;27.612;2023-05-07T05:56:31;4.6;3.4;2.7
53698;PMS7003;68408;53.952;27.612;2023-05-07T06:01:51;5.8;4.1;3.1
53698;PMS7003;68408;53.952;27.612;2023-05-07T06:06:39;3.9;3.6;3
53698;PMS7003;68408;53.952;27.612;2023-05-07T06:11:59;4.6;4.1;3.2
53698;PMS7003;68408;53.952;27.612;2023-05-07T06:16:43;5.3;3.8;3
53698;PMS7003;68408;53.952;27.612;2023-05-07T06:21:13;5.3;4.1;3.4
53698;PMS7003;68408;53.952;27.612;2023-05-07T06:26:13;5.7;4.8;3.9
53698;PMS7003;68408;53.952;27.612;2023-05-07T06:32:05;5.6;4.7;3.4
53698;PMS7003;68408;53.952;27.612;2023-05-07T06:36:23;4.5;4;3.2
53698;PMS7003;68408;53.952;27.612;2023-05-07T06:41:57;4.2;3.6;2.8
53698;PMS7003;68408;53.952;27.612;2023-05-07T06:46:45;2.5;2.1;1.7
53698;PMS7003;68408;53.952;27.612;2023-05-07T06:51:25;2.9;2.5;2
53698;PMS7003;68408;53.952;27.612;2023-05-07T06:56:25;2.3;1.6;1.3
53698;PMS7003;68408;53.952;27.612;2023-05-07T07:01:39;2.9;1.8;1.5
53698;PMS7003;68408;53.952;27.612;2023-05-07T07:06:31;2.8;1.7;1.5
53698;PMS7003;68408;53.952;27.612;2023-05-07T07:11:51;2.4;1.6;1.4
53698;PMS7003;68408;53.952;27.612;2023-05-07T07:16:39;2.4;1.9;1.7
53698;PMS7003;68408;53.952;27.612;2023-05-07T07:21:13;2.8;2;1.7
53698;PMS7003;68408;53.952;27.612;2023-05-07T07:26:59;3;2.3;1.9
53698;PMS7003;68408;53.952;27.612;2023-05-07T07:31:59;2.1;1.6;1.3
53698;PMS7003;68408;53.952;27.612;2023-05-07T07:36:19;3.3;2.6;2.2
53698;PMS7003;68408;53.952;27.612;2023-05-07T07:41:13;2.6;1.7;1.6
53698;PMS7003;68408;53.952;27.612;2023-05-07T07:46:13;2;1.1;1
53698;PMS7003;68408;53.952;27.612;2023-05-07T07:51:59;3.2;2.3;1.9
53698;PMS7003;68408;53.952;27.612;2023-05-07T07:56:35;2.5;2.2;1.8
53698;PMS7003;68408;53.952;27.612;2023-05-07T08:01:26;3.1;2.5;2
53698;PMS7003;68408;53.952;27.612;2023-05-07T08:06:47;3.8;2.8;2.3
53698;PMS7003;68408;53.952;27.612;2023-05-07T08:11:25;5.9;4;3.2
53698;PMS7003;68408;53.952;27.612;2023-05-07T08:16:31;3.5;2.9;2.6
53698;PMS7003;68408;53.952;27.612;2023-05-07T08:21:31;4.1;3.4;3
53698;PMS7003;68408;53.952;27.612;2023-05-07T08:26:55;7.6;6;4.8
53698;PMS7003;68408;53.952;27.612;2023-05-07T08:31:13;3.8;3.1;2.2
53698;PMS7003;68408;53.952;27.612;2023-05-07T08:36:59;3.7;3.1;2.6
53698;PMS7003;68408;53.952;27.612;2023-05-07T08:42:00;4.1;3.5;3
53698;PMS7003;68408;53.952;27.612;2023-05-07T08:46:15;4.6;3.4;2.9
53698;PMS7003;68408;53.952;27.612;2023-05-07T08:51:15;4.8;3.6;2.9
53698;PMS7003;68408;53.952;27.612;2023-05-07T08:56:47;7;5.3;4.2
53698;PMS7003;68408;53.952;27.612;2023-05-07T09:01:44;5.6;4;3.1
53698;PMS7003;68408;53.952;27.612;2023-05-07T09:06:51;4.6;3.6;2.9
53698;PMS7003;68408;53.952;27.612;2023-05-07T09:11:39;4.4;3;2.4
53698;PMS7003;68408;53.952;27.612;2023-05-07T09:16:59;5.4;4.2;3.3
53698;PMS7003;68408;53.952;27.612;2023-05-07T09:21:43;4.9;4.1;3.4
53698;PMS7003;68408;53.952;27.612;2023-05-07T09:26:27;4.6;3.9;3.3
53698;PMS7003;68408;53.952;27.612;2023-05-07T09:31:25;4.5;4.2;3.7
53698;PMS7003;68408;53.952;27.612;2023-05-07T09:37:00;4.9;4.2;3.5
53698;PMS7003;68408;53.952;27.612;2023-05-07T09:41:13;4.6;4;3.3
53698;PMS7003;68408;53.952;27.612;2023-05-07T09:46:49;4.6;3.5;2.9
53698;PMS7003;68408;53.952;27.612;2023-05-07T09:51:48;4.1;2.8;2.3
53698;PMS7003;68408;53.952;27.612;2023-05-07T09:56:14;5.5;4.1;3.3
53698;PMS7003;68408;53.952;27.612;2023-05-07T10:01:42;5.4;4.5;3.7
53698;PMS7003;68408;53.952;27.612;2023-05-07T10:06:13;4.4;4.1;3.5
53698;PMS7003;68408;53.952;27.612;2023-05-07T10:11:14;4.8;4.2;3.4
53698;PMS7003;68408;53.952;27.612;2023-05-07T10:16:49;4.2;3.8;3.3
53698;PMS7003;68408;53.952;27.612;2023-05-07T10:21:54;4.6;3.6;3
53698;PMS7003;68408;53.952;27.612;2023-05-07T10:26:27;5;3.7;3.2
53698;PMS7003;68408;53.952;27.612;2023-05-07T10:31:46;4;3.8;3.4
53698;PMS7003;68408;53.952;27.612;2023-05-07T10:36:51;4.4;4.1;3.3
53698;PMS7003;68408;53.952;27.612;2023-05-07T10:42:07;4.4;3.6;3.3
53698;PMS7003;68408;53.952;27.612;2023-05-07T10:46:14;4.9;3.8;3.3
53698;PMS7003;68408;53.952;27.612;2023-05-07T10:51:50;5;3.8;3.2
53698;PMS7003;68408;53.952;27.612;2023-05-07T10:57:02;3.9;3.4;2.9
53698;PMS7003;68408;53.952;27.612;2023-05-07T11:01:58;4.3;3.6;2.8
53698;PMS7003;68408;53.952;27.612;2023-05-07T11:06:19;4;3.5;3
53698;PMS7003;68408;53.952;27.612;2023-05-07T11:12:00;5.2;4.2;3.7
53698;PMS7003;68408;53.952;27.612;2023-05-07T11:16:52;4.4;3.8;3.3
53698;PMS7003;68408;53.952;27.612;2023-05-07T11:21:15;4;3.6;3.2
53698;PMS7003;68408;53.952;27.612;2023-05-07T11:26:41;4.4;3.1;2.5
53698;PMS7003;68408;53.952;27.612;2023-05-07T11:32:00;5;3.6;3.1
53698;PMS7003;68408;53.952;27.612;2023-05-07T11:36:26;4.9;3.6;2.9
53698;PMS7003;68408;53.952;27.612;2023-05-07T11:41:48;4;3.3;2.7
53698;PMS7003;68408;53.952;27.612;2023-05-07T11:47:00;4.6;3.7;3.2
53698;PMS7003;68408;53.952;27.612;2023-05-07T11:51:14;3.2;2.7;2.3
53698;PMS7003;68408;53.952;27.612;2023-05-07T11:56:14;3.6;2.8;2.4
53698;PMS7003;68408;53.952;27.612;2023-05-07T12:01:26;3.6;3;2.7
53698;PMS7003;68408;53.952;27.612;2023-05-07T12:06:14;3.9;3.2;2.7
53698;PMS7003;68408;53.952;27.612;2023-05-07T12:11:52;3.2;2.6;1.9
53698;PMS7003;68408;53.952;27.612;2023-05-07T12:16:40;3.3;2.8;2.5
53698;PMS7003;68408;53.952;27.612;2023-05-07T12:21:24;3.7;3.2;2.5
53698;PMS7003;68408;53.952;27.612;2023-05-07T12:26:46;3.8;3.7;3.1
53698;PMS7003;68408;53.952;27.612;2023-05-07T12:32:00;3.5;2.7;2.2
53698;PMS7003;68408;53.952;27.612;2023-05-07T12:36:39;3.9;3.6;3.2
53698;PMS7003;68408;53.952;27.612;2023-05-07T12:41:24;3.6;2.8;2.4
53698;PMS7003;68408;53.952;27.612;2023-05-07T12:46:26;3.6;3;2.5
53698;PMS7003;68408;53.952;27.612;2023-05-07T12:52:00;3.4;2.5;2.1
53698;PMS7003;68408;53.952;27.612;2023-05-07T12:56:36;4.7;3.2;2.7
53698;PMS7003;68408;53.952;27.612;2023-05-07T13:01:14;3.5;2.9;2.3
53698;PMS7003;68408;53.952;27.612;2023-05-07T13:07:00;4.1;2.9;2.6
53698;PMS7003;68408;53.952;27.612;2023-05-07T13:11:28;2.9;2.6;2.2
53698;PMS7003;68408;53.952;27.612;2023-05-07T13:16:26;3.6;3.2;2.6
53698;PMS7003;68408;53.952;27.612;2023-05-07T13:21:32;4.1;3;2.4
53698;PMS7003;68408;53.952;27.612;2023-05-07T13:27:00;4.2;3.2;2.7
53698;PMS7003;68408;53.952;27.612;2023-05-07T13:31:26;3.2;2.7;2.4
53698;PMS7003;68408;53.952;27.612;2023-05-07T13:37:00;4.4;2.9;2.1
53698;PMS7003;68408;53.952;27.612;2023-05-07T13:41:48;3.9;3.1;2.3
53698;PMS7003;68408;53.952;27.612;2023-05-07T13:46:14;2.9;2.1;1.6
53698;PMS7003;68408;53.952;27.612;2023-05-07T13:51:36;3.2;2.2;1.7
53698;PMS7003;68408;53.952;27.612;2023-05-07T13:56:48;4.6;3.5;3.1
53698;PMS7003;68408;53.952;27.612;2023-05-07T14:01:46;3.7;3;2.6
53698;PMS7003;68408;53.952;27.612;2023-05-07T14:06:52;2.9;2.6;2.3
53698;PMS7003;68408;53.952;27.612;2023-05-07T14:11:14;3.3;2.7;2.2
53698;PMS7003;68408;53.952;27.612;2023-05-07T14:16:46;3.3;2.9;2.5
53698;PMS7003;68408;53.952;27.612;2023-05-07T14:22:02;3.6;2.9;2.4
53698;PMS7003;68408;53.952;27.612;2023-05-07T14:26:14;2.9;2.7;2.2
53698;PMS7003;68408;53.952;27.612;2023-05-07T14:31:26;3.6;2.9;2.2
53698;PMS7003;68408;53.952;27.612;2023-05-07T14:36:44;3.7;3;2.5
53698;PMS7003;68408;53.952;27.612;2023-05-07T14:41:24;2.7;2.3;2
53698;PMS7003;68408;53.952;27.612;2023-05-07T14:46:48;2.6;2.2;1.9
53698;PMS7003;68408;53.952;27.612;2023-05-07T14:51:48;2.5;1.8;1.3
53698;PMS7003;68408;53.952;27.612;2023-05-07T14:56:14;2.9;2.1;1.9
53698;PMS7003;68408;53.952;27.612;2023-05-07T15:01:16;2.7;2.3;1.9
53698;PMS7003;68408;53.952;27.612;2023-05-07T15:06:40;2.9;2.1;1.9
53698;PMS7003;68408;53.952;27.612;2023-05-07T15:11:26;2.7;2.1;2
53698;PMS7003;68408;53.952;27.612;2023-05-07T15:16:52;3.1;2.1;1.8
53698;PMS7003;68408;53.952;27.612;2023-05-07T15:21:38;2.8;2.4;2.1
53698;PMS7003;68408;53.952;27.612;2023-05-07T15:26:32;2.5;2;1.7
53698;PMS7003;68408;53.952;27.612;2023-05-07T15:31:44;3.1;2.7;2.3
53698;PMS7003;68408;53.952;27.612;2023-05-07T15:36:58;3.3;2.4;2.1
53698;PMS7003;68408;53.952;27.612;2023-05-07T15:41:32;3.7;3;2.7
53698;PMS7003;68408;53.952;27.612;2023-05-07T15:46:16;4.1;3.3;2.7
53698;PMS7003;68408;53.952;27.612;2023-05-07T15:51:14;3.8;3.1;2.8
53698;PMS7003;68408;53.952;27.612;2023-05-07T15:57:00;4.1;3.2;2.5
53698;PMS7003;68408;53.952;27.612;2023-05-07T16:01:36;3.7;3;2.4
53698;PMS7003;68408;53.952;27.612;2023-05-07T16:06:48;2.9;2.7;2.2
53698;PMS7003;68408;53.952;27.612;2023-05-07T16:12:00;3.6;2.7;2.4
53698;PMS7003;68408;53.952;27.612;2023-05-07T16:16:14;3;2.9;2.5
53698;PMS7003;68408;53.952;27.612;2023-05-07T16:21:24;3.5;2.8;2.3
53698;PMS7003;68408;53.952;27.612;2023-05-07T16:26:32;4.3;3.3;2.6
53698;PMS7003;68408;53.952;27.612;2023-05-07T16:32:00;3.7;3.1;2.6
53698;PMS7003;68408;53.952;27.612;2023-05-07T16:36:38;3.6;2.9;2.6
53698;PMS7003;68408;53.952;27.612;2023-05-07T16:42:00;3.4;2.8;2.3
53698;PMS7003;68408;53.952;27.612;2023-05-07T16:47:00;4.2;3.5;2.8
53698;PMS7003;68408;53.952;27.612;2023-05-07T16:51:14;3.8;3.1;2.5
53698;PMS7003;68408;53.952;27.612;2023-05-07T16:56:26;3.7;3.1;2.2
53698;PMS7003;68408;53.952;27.612;2023-05-07T17:01:50;3.5;2.9;2.5
53698;PMS7003;68408;53.952;27.612;2023-05-07T17:06:46;3.8;3.2;2.6
53698;PMS7003;68408;53.952;27.612;2023-05-07T17:11:26;5.1;3.7;3.2
53698;PMS7003;68408;53.952;27.612;2023-05-07T17:16:28;4.4;3.9;3.4
53698;PMS7003;68408;53.952;27.612;2023-05-07T17:22:02;4.4;3.6;3
53698;PMS7003;68408;53.952;27.612;2023-05-07T17:26:44;4.7;3.9;3.2
53698;PMS7003;68408;53.952;27.612;2023-05-07T17:31:24;6.1;4.6;3.5
53698;PMS7003;68408;53.952;27.612;2023-05-07T17:36:32;4.1;3.8;2.8
53698;PMS7003;68408;53.952;27.612;2023-05-07T17:42:00;5.6;4.6;4
53698;PMS7003;68408;53.952;27.612;2023-05-07T17:46:26;6.3;5.5;4.4
53698;PMS7003;68408;53.952;27.612;2023-05-07T17:52:00;6.9;6;4.8
53698;PMS7003;68408;53.952;27.612;2023-05-07T17:56:48;8;6.3;5.1
53698;PMS7003;68408;53.952;27.612;2023-05-07T18:01:24;7;6.1;4.8
53698;PMS7003;68408;53.952;27.612;2023-05-07T18:06:44;8.5;7.3;5.5
53698;PMS7003;68408;53.952;27.612;2023-05-07T18:11:26;9.5;7.8;5.9
53698;PMS7003;68408;53.952;27.612;2023-05-07T18:16:32;9.5;7.7;5.9
53698;PMS7003;68408;53.952;27.612;2023-05-07T18:21:40;10;9;7
53698;PMS7003;68408;53.952;27.612;2023-05-07T18:27:00;11.4;9.5;7.6
53698;PMS7003;68408;53.952;27.612;2023-05-07T18:31:40;10.6;9.3;7.3
53698;PMS7003;68408;53.952;27.612;2023-05-07T18:36:34;10.1;8.4;7
53698;PMS7003;68408;53.952;27.612;2023-05-07T18:41:42;11;9.1;7.2
53698;PMS7003;68408;53.952;27.612;2023-05-07T18:46:48;8.8;8.1;6.6
53698;PMS7003;68408;53.952;27.612;2023-05-07T18:51:36;9.2;6.8;5
53698;PMS7003;68408;53.952;27.612;2023-05-07T18:56:46;7.9;6.3;5
53698;PMS7003;68408;53.952;27.612;2023-05-07T19:02:02;7.6;6.4;4.9
53698;PMS7003;68408;53.952;27.612;2023-05-07T19:07:02;6.6;5.3;4
53698;PMS7003;68408;53.952;27.612;2023-05-07T19:11:14;7;6.1;4.8
53698;PMS7003;68408;53.952;27.612;2023-05-07T19:17:02;6.9;5.7;4.6
53698;PMS7003;68408;53.952;27.612;2023-05-07T19:21:40;7.2;6.2;4.8
53698;PMS7003;68408;53.952;27.612;2023-05-07T19:26:22;7.5;5.8;4.4
53698;PMS7003;68408;53.952;27.612;2023-05-07T19:31:32;6.9;5.8;4.5
53698;PMS7003;68408;53.952;27.612;2023-05-07T19:37:00;8;6.5;5.2
53698;PMS7003;68408;53.952;27.612;2023-05-07T19:41:28;7.9;6.2;5.1
53698;PMS7003;68408;53.952;27.612;2023-05-07T19:47:00;8.3;6.2;4.8
53698;PMS7003;68408;53.952;27.612;2023-05-07T19:52:00;7.4;6.4;4.9
53698;PMS7003;68408;53.952;27.612;2023-05-07T19:56:24;7;6.5;5.2
53698;PMS7003;68408;53.952;27.612;2023-05-07T20:01:36;7.3;6.4;5.1
53698;PMS7003;68408;53.952;27.612;2023-05-07T20:06:48;8.4;7.1;5.8
53698;PMS7003;68408;53.952;27.612;2023-05-07T20:11:44;8.9;8;6.3
53698;PMS7003;68408;53.952;27.612;2023-05-07T20:16:52;8.7;7.4;6.2
53698;PMS7003;68408;53.952;27.612;2023-05-07T20:21:40;7.4;6.3;4.7
53698;PMS7003;68408;53.952;27.612;2023-05-07T20:26:58;8.4;7.2;5.4
53698;PMS7003;68408;53.952;27.612;2023-05-07T20:31:22;8.1;6.2;4.8
53698;PMS7003;68408;53.952;27.612;2023-05-07T20:37:00;6.1;5.1;4.2
53698;PMS7003;68408;53.952;27.612;2023-05-07T20:41:14;7.7;6.2;5.1
53698;PMS7003;68408;53.952;27.612;2023-05-07T20:47:00;6.1;5.6;4.2
53698;PMS7003;68408;53.952;27.612;2023-05-07T20:51:14;6.2;5.2;3.7
53698;PMS7003;68408;53.952;27.612;2023-05-07T20:56:48;6.3;5.7;4.7
53698;PMS7003;68408;53.952;27.612;2023-05-07T21:01:48;6.4;5.4;4.2
53698;PMS7003;68408;53.952;27.612;2023-05-07T21:06:36;5.9;5;3.8
53698;PMS7003;68408;53.952;27.612;2023-05-07T21:11:44;6.7;5.7;4.4
53698;PMS7003;68408;53.952;27.612;2023-05-07T21:16:40;5.8;4.7;3.8
53698;PMS7003;68408;53.952;27.612;2023-05-07T21:21:14;5.3;4;3.1
53698;PMS7003;68408;53.952;27.612;2023-05-07T21:27:00;6.5;5.2;3.7
53698;PMS7003;68408;53.952;27.612;2023-05-07T21:31:52;5.9;5.3;3.9
53698;PMS7003;68408;53.952;27.612;2023-05-07T21:36:26;5.4;4.8;3.8
53698;PMS7003;68408;53.952;27.612;2023-05-07T21:41:44;5.6;4.8;3.7
53698;PMS7003;68408;53.952;27.612;2023-05-07T21:46:52;6.6;5.3;4.1
53698;PMS7003;68408;53.952;27.612;2023-05-07T21:51:46;6.2;5.3;4.2
53698;PMS7003;68408;53.952;27.612;2023-05-07T21:56:14;5.9;4.5;3.5
53698;PMS7003;68408;53.952;27.612;2023-05-07T22:01:48;6.1;4.4;3.5
53698;PMS7003;68408;53.952;27.612;2023-05-07T22:06:58;5.2;4.2;3.4
53698;PMS7003;68408;53.952;27.612;2023-05-07T22:12:00;5.6;4.7;3.8
53698;PMS7003;68408;53.952;27.612;2023-05-07T22:16:30;5.9;5;3.8
53698;PMS7003;68408;53.952;27.612;2023-05-07T22:21:58;6.1;4.3;3.4
53698;PMS7003;68408;53.952;27.612;2023-05-07T22:26:52;6.1;4.9;3.7
53698;PMS7003;68408;53.952;27.612;2023-05-07T22:31:26;6.1;5.1;4.1
53698;PMS7003;68408;53.952;27.612;2023-05-07T22:36:20;5.1;4.2;3.6
53698;PMS7003;68408;53.952;27.612;2023-05-07T22:41:58;5.3;4.3;3.3
53698;PMS7003;68408;53.952;27.612;2023-05-07T22:46:14;7.1;5.4;4.3
53698;PMS7003;68408;53.952;27.612;2023-05-07T22:52:00;6.7;4.8;3.7
53698;PMS7003;68408;53.952;27.612;2023-05-07T22:57:00;6.3;5;3.9
53698;PMS7003;68408;53.952;27.612;2023-05-07T23:01:26;6.2;4.9;4
53698;PMS7003;68408;53.952;27.612;2023-05-07T23:06:36;5.7;4.6;3.5
53698;PMS7003;68408;53.952;27.612;2023-05-07T23:11:40;6.2;5.5;4.2
53698;PMS7003;68408;53.952;27.612;2023-05-07T23:16:14;5;4.5;3.8
53698;PMS7003;68408;53.952;27.612;2023-05-07T23:21:52;6.2;4.7;3.8
53698;PMS7003;68408;53.952;27.612;2023-05-07T23:26:40;6.4;5.3;4.2
53698;PMS7003;68408;53.952;27.612;2023-05-07T23:31:32;6.3;5.3;3.9
53698;PMS7003;68408;53.952;27.612;2023-05-07T23:37:02;7.6;5.9;4.8
53698;PMS7003;68408;53.952;27.612;2023-05-07T23:41:28;7;5.6;4.3
53698;PMS7003;68408;53.952;27.612;2023-05-07T23:46:50;7.1;5.8;4.8
53698;PMS7003;68408;53.952;27.612;2023-05-07T23:52:02;5.8;4.9;4.1
53698;PMS7003;68408;53.952;27.612;2023-05-07T23:56:14;6.5;6.1;4.9
